createdAt,value
2017-11-17T00:01:34.218Z,33.77
2017-11-17T00:04:02.657Z,42.30
2017-11-17T00:06:31.083Z,41.40
2017-11-17T00:08:59.536Z,38.87
2017-11-17T00:11:27.974Z,51.67
2017-11-17T00:13:56.405Z,42.57
2017-11-17T00:16:24.879Z,38.70
2017-11-17T00:18:53.405Z,40.47
2017-11-17T00:21:22.610Z,44.43
2017-11-17T00:23:51.845Z,47.43
2017-11-17T00:26:20.274Z,49.33
2017-11-17T00:28:49.470Z,51.20
2017-11-17T00:31:18.692Z,41.87
2017-11-17T00:33:47.125Z,54.83
2017-11-17T00:36:17.075Z,54.97
2017-11-17T00:38:46.293Z,43.67
2017-11-17T00:41:14.721Z,53.67
2017-11-17T00:43:43.149Z,49.33
2017-11-17T00:46:11.629Z,53.93
2017-11-17T00:48:40.058Z,51.23
2017-11-17T00:51:09.251Z,49.50
2017-11-17T00:53:37.722Z,53.57
2017-11-17T00:56:06.154Z,47.50
2017-11-17T00:58:34.586Z,47.80
2017-11-17T01:01:04.542Z,43.27
2017-11-17T01:03:32.967Z,47.03
2017-11-17T01:06:01.393Z,46.37
2017-11-17T01:08:30.612Z,54.53
2017-11-17T01:10:59.053Z,46.13
2017-11-17T01:13:28.267Z,45.30
2017-11-17T01:15:57.492Z,46.63
2017-11-17T01:18:25.928Z,51.77
2017-11-17T01:20:56.188Z,43.67
2017-11-17T01:23:24.314Z,39.90
2017-11-17T01:25:52.751Z,45.40
2017-11-17T01:28:21.212Z,36.20
2017-11-17T01:30:49.834Z,38.67
2017-11-17T01:33:18.265Z,43.33
2017-11-17T01:35:46.693Z,43.93
2017-11-17T01:38:15.149Z,47.33
2017-11-17T01:40:43.586Z,48.70
2017-11-17T01:43:12.798Z,49.40
2017-11-17T01:45:41.253Z,42.97
2017-11-17T01:48:09.684Z,43.93
2017-11-17T01:50:38.117Z,52.40
2017-11-17T01:53:07.356Z,56.03
2017-11-17T01:55:35.793Z,53.73
2017-11-17T01:58:05.405Z,52.63
2017-11-17T02:00:33.987Z,53.43
2017-11-17T02:03:02.849Z,46.80
2017-11-17T02:05:31.283Z,39.30
2017-11-17T02:07:59.739Z,38.33
2017-11-17T02:10:28.937Z,50.97
2017-11-17T02:12:58.133Z,47.53
2017-11-17T02:15:26.598Z,52.60
2017-11-17T02:17:55.845Z,47.33
2017-11-17T02:20:23.937Z,53.97
2017-11-17T02:22:52.399Z,45.87
2017-11-17T02:25:20.179Z,45.33
2017-11-17T02:27:47.953Z,59.83
2017-11-17T02:30:15.819Z,44.53
2017-11-17T02:32:43.686Z,49.80
2017-11-17T02:35:11.454Z,39.30
2017-11-17T02:37:39.243Z,44.70
2017-11-17T02:40:08.434Z,47.37
2017-11-17T02:42:37.065Z,41.00
2017-11-17T02:45:05.535Z,50.07
2017-11-17T02:47:33.306Z,44.57
2017-11-17T02:50:01.070Z,40.07
2017-11-17T02:52:28.859Z,41.77
2017-11-17T02:54:56.622Z,40.53
2017-11-17T02:57:24.430Z,42.57
2017-11-17T02:59:53.310Z,38.97
2017-11-17T03:02:22.513Z,32.03
2017-11-17T03:04:51.716Z,35.03
2017-11-17T03:07:19.841Z,32.17
2017-11-17T03:09:49.042Z,34.60
2017-11-17T03:12:17.474Z,37.13
2017-11-17T03:14:45.625Z,23.87
2017-11-17T03:17:14.289Z,34.50
2017-11-17T03:19:42.720Z,27.30
2017-11-17T03:22:11.168Z,28.10
2017-11-17T03:24:39.700Z,23.20
2017-11-17T03:27:07.470Z,25.10
2017-11-17T03:29:35.591Z,23.10
2017-11-17T03:32:04.022Z,33.07
2017-11-17T03:34:32.488Z,25.90
2017-11-17T03:37:00.944Z,31.07
2017-11-17T03:39:29.378Z,27.17
2017-11-17T03:41:57.808Z,24.47
2017-11-17T03:44:25.934Z,27.97
2017-11-17T03:46:53.702Z,31.07
2017-11-17T03:49:22.898Z,27.87
2017-11-17T03:51:51.030Z,32.30
2017-11-17T03:54:19.464Z,28.43
2017-11-17T03:56:48.663Z,30.60
2017-11-17T03:59:18.229Z,37.30
2017-11-17T04:01:46.656Z,44.60
2017-11-17T04:04:15.085Z,34.33
2017-11-17T04:06:43.365Z,31.03
2017-11-17T04:09:11.471Z,42.03
2017-11-17T04:11:40.673Z,31.87
2017-11-17T04:14:09.885Z,28.60
2017-11-17T04:16:38.320Z,29.80
2017-11-17T04:19:06.753Z,26.87
2017-11-17T04:21:34.892Z,29.50
2017-11-17T04:24:04.100Z,25.03
2017-11-17T04:26:32.535Z,25.57
2017-11-17T04:29:00.991Z,28.07
2017-11-17T04:31:29.430Z,25.23
2017-11-17T04:33:57.870Z,32.97
2017-11-17T04:36:26.764Z,25.63
2017-11-17T04:38:56.367Z,21.60
2017-11-17T04:41:24.807Z,23.90
2017-11-17T04:43:53.352Z,26.47
2017-11-17T04:46:22.209Z,22.63
2017-11-17T04:48:50.642Z,24.67
2017-11-17T04:51:18.873Z,25.53
2017-11-17T04:53:47.301Z,33.73
2017-11-17T04:56:15.738Z,29.47
2017-11-17T04:58:44.190Z,37.27
2017-11-17T05:01:12.382Z,30.60
2017-11-17T05:03:40.818Z,29.13
2017-11-17T05:06:09.265Z,30.40
2017-11-17T05:08:38.457Z,36.00
2017-11-17T05:11:07.656Z,43.87
2017-11-17T05:13:36.873Z,36.97
2017-11-17T05:16:05.304Z,40.13
2017-11-17T05:18:33.745Z,38.53
2017-11-17T05:21:02.032Z,41.77
2017-11-17T05:23:30.465Z,53.30
2017-11-17T05:25:59.667Z,39.90
2017-11-17T05:28:28.883Z,41.57
2017-11-17T05:30:57.315Z,40.10
2017-11-17T05:33:25.754Z,46.73
2017-11-17T05:35:54.208Z,40.90
2017-11-17T05:38:23.404Z,45.30
2017-11-17T05:40:52.599Z,38.37
2017-11-17T05:43:21.935Z,39.83
2017-11-17T05:45:50.376Z,57.27
2017-11-17T05:48:19.581Z,44.43
2017-11-17T05:50:49.050Z,45.27
2017-11-17T05:53:17.619Z,58.63
2017-11-17T05:55:46.057Z,54.93
2017-11-17T05:58:14.640Z,60.10
2017-11-17T06:00:43.908Z,46.63
2017-11-17T06:03:12.391Z,54.45
2017-11-17T06:05:41.167Z,51.13
2017-11-17T06:08:09.866Z,55.47
2017-11-17T06:10:38.650Z,56.05
2017-11-17T06:13:07.390Z,54.97
2017-11-17T06:15:36.201Z,59.63
2017-11-17T06:18:04.690Z,49.00
2017-11-17T06:20:33.426Z,55.63
2017-11-17T06:23:02.582Z,54.70
2017-11-17T06:25:31.302Z,51.28
2017-11-17T06:27:59.754Z,57.67
2017-11-17T06:30:29.344Z,67.23
2017-11-17T06:32:58.804Z,57.20
2017-11-17T06:35:27.582Z,54.28
2017-11-17T06:37:57.358Z,60.03
2017-11-17T06:40:26.266Z,65.68
2017-11-17T06:42:55.950Z,51.83
2017-11-17T06:45:24.864Z,49.13
2017-11-17T06:47:54.282Z,50.90
2017-11-17T06:50:23.807Z,64.30
2017-11-17T06:52:52.238Z,61.90
2017-11-17T06:55:21.776Z,57.33
2017-11-17T06:57:51.303Z,61.10
2017-11-17T07:00:19.741Z,57.10
2017-11-17T07:02:48.448Z,50.00
2017-11-17T07:05:16.949Z,58.63
2017-11-17T07:07:45.386Z,62.13
2017-11-17T07:10:14.096Z,53.67
2017-11-17T07:12:42.878Z,61.07
2017-11-17T07:15:11.448Z,60.37
2017-11-17T07:17:39.887Z,56.55
2017-11-17T07:20:08.531Z,53.60
2017-11-17T07:22:37.256Z,51.17
2017-11-17T07:25:06.035Z,52.40
2017-11-17T07:27:34.948Z,54.13
2017-11-17T07:30:03.671Z,49.00
2017-11-17T07:32:33.347Z,46.60
2017-11-17T07:35:02.091Z,47.13
2017-11-17T07:37:30.806Z,49.33
2017-11-17T07:39:59.383Z,52.13
2017-11-17T07:42:29.363Z,41.35
2017-11-17T07:44:58.362Z,52.53
2017-11-17T07:47:27.199Z,48.58
2017-11-17T07:49:56.457Z,57.30
2017-11-17T07:52:24.921Z,44.53
2017-11-17T07:54:53.638Z,53.00
2017-11-17T07:57:22.284Z,45.57
2017-11-17T07:59:50.975Z,47.77
2017-11-17T08:02:19.578Z,50.83
2017-11-17T08:04:48.027Z,53.27
2017-11-17T08:07:16.850Z,51.58
2017-11-17T08:09:44.836Z,47.75
2017-11-17T08:12:13.721Z,68.80
2017-11-17T08:14:42.154Z,60.20
2017-11-17T08:17:21.712Z,61.27
2017-11-17T08:19:49.814Z,57.97
2017-11-17T08:22:18.410Z,59.13
2017-11-17T08:24:47.302Z,54.10
2017-11-17T08:27:16.019Z,52.95
2017-11-17T08:29:44.836Z,58.45
2017-11-17T08:32:13.492Z,49.73
2017-11-17T08:34:41.965Z,41.57
2017-11-17T08:37:10.719Z,57.80
2017-11-17T08:39:39.936Z,52.17
2017-11-17T08:42:08.374Z,50.67
2017-11-17T08:44:37.499Z,43.50
2017-11-17T08:47:06.118Z,45.23
2017-11-17T08:49:34.632Z,48.77
2017-11-17T08:52:03.844Z,48.47
2017-11-17T08:54:32.363Z,44.87
2017-11-17T08:57:01.839Z,44.78
2017-11-17T08:59:30.606Z,48.83
2017-11-17T09:01:59.349Z,49.97
2017-11-17T09:04:27.788Z,44.75
2017-11-17T09:06:56.503Z,39.33
2017-11-17T09:09:25.201Z,46.60
2017-11-17T09:11:53.878Z,47.17
2017-11-17T09:14:22.384Z,43.87
2017-11-17T09:16:51.735Z,47.38
2017-11-17T09:19:21.248Z,45.23
2017-11-17T09:21:50.731Z,48.40
2017-11-17T09:24:19.359Z,41.75
2017-11-17T09:26:47.924Z,34.97
2017-11-17T09:29:16.966Z,39.90
2017-11-17T09:31:46.012Z,44.87
2017-11-17T09:34:15.648Z,49.08
2017-11-17T09:36:44.407Z,43.87
2017-11-17T09:39:14.320Z,49.30
2017-11-17T09:41:43.083Z,43.13
2017-11-17T09:44:11.127Z,47.33
2017-11-17T09:46:39.534Z,49.45
2017-11-17T09:49:08.238Z,45.63
2017-11-17T09:51:36.432Z,43.90
2017-11-17T09:54:05.196Z,54.80
2017-11-17T09:56:33.800Z,47.57
2017-11-17T09:59:02.232Z,41.70
2017-11-17T10:01:30.785Z,47.58
2017-11-17T10:04:00.747Z,53.87
2017-11-17T10:06:29.055Z,41.47
2017-11-17T10:08:57.792Z,46.20
2017-11-17T10:11:26.657Z,44.00
2017-11-17T10:13:55.096Z,53.73
2017-11-17T10:16:24.256Z,49.65
2017-11-17T10:18:54.098Z,53.05
2017-11-17T10:21:23.585Z,46.08
2017-11-17T10:23:52.470Z,55.77
2017-11-17T10:26:21.017Z,48.92
2017-11-17T10:28:49.731Z,55.07
2017-11-17T10:31:18.470Z,57.62
2017-11-17T10:33:47.196Z,50.83
2017-11-17T10:36:15.979Z,48.87
2017-11-17T10:38:44.736Z,48.03
2017-11-17T10:41:13.735Z,48.00
2017-11-17T10:43:42.181Z,49.57
2017-11-17T10:46:11.680Z,55.78
2017-11-17T10:48:41.156Z,48.27
2017-11-17T10:51:09.965Z,46.92
2017-11-17T10:53:38.437Z,41.00
2017-11-17T10:56:25.519Z,56.53
2017-11-17T10:58:54.962Z,42.27
2017-11-17T11:01:24.440Z,48.70
2017-11-17T11:03:53.682Z,50.67
2017-11-17T11:06:22.342Z,58.70
2017-11-17T11:08:50.590Z,49.00
2017-11-17T11:11:25.140Z,49.17
2017-11-17T11:13:54.620Z,47.93
2017-11-17T11:16:23.539Z,60.58
2017-11-17T11:18:51.666Z,46.47
2017-11-17T11:21:21.147Z,52.80
2017-11-17T11:23:49.743Z,43.60
2017-11-17T11:26:18.152Z,50.00
2017-11-17T11:28:47.361Z,48.17
2017-11-17T11:31:16.347Z,50.55
2017-11-17T11:33:44.702Z,48.60
2017-11-17T11:36:12.748Z,49.28
2017-11-17T11:38:42.285Z,45.92
2017-11-17T11:41:11.845Z,50.72
2017-11-17T11:43:40.800Z,52.00
2017-11-17T11:46:09.408Z,51.78
2017-11-17T11:48:38.154Z,51.53
2017-11-17T11:51:07.918Z,55.60
2017-11-17T11:53:36.349Z,46.47
2017-11-17T11:56:05.893Z,54.63
2017-11-17T11:58:35.444Z,49.73
2017-11-17T12:01:03.491Z,54.65
2017-11-17T12:03:31.947Z,47.40
2017-11-17T12:06:00.052Z,48.53
2017-11-17T12:08:28.592Z,56.63
2017-11-17T12:10:57.996Z,58.50
2017-11-17T12:13:26.743Z,54.97
2017-11-17T12:15:55.199Z,47.27
2017-11-17T12:18:24.052Z,46.80
2017-11-17T12:20:53.534Z,41.00
2017-11-17T12:23:22.246Z,57.65
2017-11-17T12:25:50.787Z,43.45
2017-11-17T12:28:19.489Z,53.33
2017-11-17T12:30:48.197Z,50.45
2017-11-17T12:33:16.955Z,46.40
2017-11-17T12:35:46.355Z,44.70
2017-11-17T12:38:15.542Z,43.90
2017-11-17T12:40:44.182Z,47.30
2017-11-17T12:43:12.805Z,45.83
2017-11-17T12:45:41.676Z,44.80
2017-11-17T12:48:10.406Z,51.60
2017-11-17T12:50:39.619Z,45.00
2017-11-17T12:53:08.338Z,45.25
2017-11-17T12:55:37.079Z,45.42
2017-11-17T12:58:05.575Z,46.42
2017-11-17T13:00:34.282Z,53.25
2017-11-17T13:03:03.482Z,51.37
2017-11-17T13:05:32.290Z,47.17
2017-11-17T13:08:00.966Z,40.85
2017-11-17T13:10:29.705Z,58.67
2017-11-17T13:12:58.560Z,52.03
2017-11-17T13:15:27.289Z,61.43
2017-11-17T13:17:56.135Z,48.03
2017-11-17T13:20:25.034Z,61.63
2017-11-17T13:22:53.675Z,52.47
2017-11-17T13:25:22.139Z,42.17
2017-11-17T13:27:50.575Z,44.37
2017-11-17T13:30:19.289Z,49.70
2017-11-17T13:32:47.981Z,45.37
2017-11-17T13:35:17.543Z,49.72
2017-11-17T13:37:46.165Z,41.35
2017-11-17T13:40:14.859Z,45.17
2017-11-17T13:42:43.566Z,53.67
2017-11-17T13:45:12.282Z,46.80
2017-11-17T13:47:41.026Z,49.47
2017-11-17T13:50:09.744Z,45.53
2017-11-17T13:52:38.490Z,43.63
2017-11-17T13:55:07.167Z,49.15
2017-11-17T13:57:36.059Z,43.13
2017-11-17T14:00:03.856Z,49.55
2017-11-17T14:02:32.321Z,53.37
2017-11-17T14:05:00.754Z,46.37
2017-11-17T14:07:29.634Z,40.10
2017-11-17T14:09:59.484Z,51.20
2017-11-17T14:15:09.045Z,46.92
2017-11-17T14:20:17.991Z,44.50
2017-11-17T14:22:47.354Z,47.70
2017-11-17T14:25:16.406Z,53.90
2017-11-17T14:27:44.953Z,57.03
2017-11-17T14:30:13.407Z,44.92
2017-11-17T14:32:42.108Z,62.97
2017-11-17T14:35:09.944Z,54.88
2017-11-17T14:37:38.809Z,44.80
2017-11-17T14:40:07.535Z,46.17
2017-11-17T14:42:37.061Z,46.20
2017-11-17T14:45:05.547Z,52.47
2017-11-17T14:47:35.440Z,39.70
2017-11-17T14:50:05.784Z,45.40
2017-11-17T14:52:34.404Z,50.80
2017-11-17T14:55:02.835Z,41.63
2017-11-17T14:57:31.680Z,45.33
2017-11-17T15:00:01.194Z,40.28
2017-11-17T15:02:30.075Z,49.10
2017-11-17T15:04:58.615Z,39.90
2017-11-17T15:07:27.054Z,49.83
2017-11-17T15:09:55.100Z,55.83
2017-11-17T15:12:24.345Z,55.90
2017-11-17T15:14:52.560Z,56.50
2017-11-17T15:17:21.655Z,47.70
2017-11-17T15:19:50.059Z,58.78
2017-11-17T15:22:18.924Z,49.10
2017-11-17T15:24:47.032Z,54.97
2017-11-17T15:27:16.057Z,53.03
2017-11-17T15:29:44.575Z,54.78
2017-11-17T15:32:12.978Z,51.80
2017-11-17T15:34:41.042Z,54.00
2017-11-17T15:37:10.821Z,55.17
2017-11-17T15:39:40.319Z,44.60
2017-11-17T15:42:08.908Z,54.37
2017-11-17T15:44:37.691Z,47.95
2017-11-17T15:47:06.278Z,48.83
2017-11-17T15:49:35.840Z,56.60
2017-11-17T15:52:03.613Z,60.13
2017-11-17T15:54:33.149Z,55.63
2017-11-17T15:57:01.662Z,51.00
2017-11-17T15:59:30.108Z,54.85
2017-11-17T16:02:02.347Z,50.47
2017-11-17T16:04:31.910Z,51.22
2017-11-17T16:09:39.902Z,51.42
2017-11-17T16:12:08.513Z,52.10
2017-11-17T16:14:37.724Z,52.67
2017-11-17T16:17:06.164Z,46.57
2017-11-17T16:19:34.806Z,50.87
2017-11-17T16:24:43.049Z,52.47
2017-11-17T16:27:11.788Z,49.70
2017-11-17T16:29:41.040Z,52.17
2017-11-17T16:34:49.655Z,59.65
2017-11-17T16:37:18.122Z,51.73
2017-11-17T16:39:45.951Z,47.77
2017-11-17T16:42:14.021Z,48.63
2017-11-17T16:44:44.049Z,55.10
2017-11-17T16:47:12.890Z,48.03
2017-11-17T16:49:41.569Z,60.08
2017-11-17T16:52:10.245Z,49.23
2017-11-17T16:54:38.639Z,52.00
2017-11-17T16:57:08.476Z,62.03
2017-11-17T16:59:37.387Z,50.83
2017-11-17T17:02:06.858Z,52.20
2017-11-17T17:04:35.304Z,50.07
2017-11-17T17:07:03.744Z,52.90
2017-11-17T17:09:32.258Z,58.85
2017-11-17T17:12:00.170Z,50.10
2017-11-17T17:14:29.420Z,53.83
2017-11-17T17:16:59.062Z,51.08
2017-11-17T17:19:27.773Z,60.37
2017-11-17T17:21:56.228Z,51.13
2017-11-17T17:24:24.935Z,52.67
2017-11-17T17:26:53.938Z,48.47
2017-11-17T17:29:23.162Z,53.70
2017-11-17T17:31:52.643Z,48.47
2017-11-17T17:34:21.710Z,47.70
2017-11-17T17:36:50.162Z,53.03
2017-11-17T17:39:18.632Z,48.13
2017-11-17T17:41:47.219Z,52.70
2017-11-17T17:44:16.760Z,59.45
2017-11-17T17:46:45.482Z,45.72
2017-11-17T17:49:13.913Z,52.75
2017-11-17T17:51:42.368Z,51.88
2017-11-17T17:54:11.131Z,50.45
2017-11-17T17:56:40.700Z,50.85
2017-11-17T17:59:09.157Z,51.53
2017-11-17T18:01:37.710Z,53.67
2017-11-17T18:04:06.155Z,51.37
2017-11-17T18:06:34.593Z,46.10
2017-11-17T18:09:03.084Z,54.72
2017-11-17T18:11:31.803Z,55.08
2017-11-17T18:14:09.574Z,47.88
2017-11-17T18:16:38.311Z,44.30
2017-11-17T18:19:06.739Z,50.55
2017-11-17T18:21:37.156Z,49.63
2017-11-17T18:24:05.775Z,56.80
2017-11-17T18:26:35.189Z,52.95
2017-11-17T18:29:03.775Z,50.83
2017-11-17T18:31:32.438Z,43.97
2017-11-17T18:34:02.057Z,52.40
2017-11-17T18:36:30.783Z,52.63
2017-11-17T18:38:59.753Z,48.17
2017-11-17T18:41:28.531Z,54.13
2017-11-17T18:43:57.114Z,53.87
2017-11-17T18:46:26.714Z,50.97
2017-11-17T18:48:55.422Z,45.65
2017-11-17T18:51:24.941Z,59.43
2017-11-17T18:53:53.824Z,53.37
2017-11-17T18:56:23.597Z,57.92
2017-11-17T18:58:52.930Z,44.13
2017-11-17T19:01:21.642Z,64.70
2017-11-17T19:03:50.339Z,59.05
2017-11-17T19:06:19.092Z,54.10
2017-11-17T19:08:47.878Z,54.83
2017-11-17T19:11:17.538Z,45.10
2017-11-17T19:13:47.007Z,56.57
2017-11-17T19:16:15.660Z,50.47
2017-11-17T19:18:44.662Z,58.80
2017-11-17T19:21:13.417Z,48.73
2017-11-17T19:23:42.228Z,51.37
2017-11-17T19:26:11.927Z,43.60
2017-11-17T19:28:40.380Z,50.47
2017-11-17T19:31:09.578Z,46.70
2017-11-17T19:33:38.890Z,52.30
2017-11-17T19:36:07.426Z,46.67
2017-11-17T19:38:36.028Z,64.27
2017-11-17T19:41:04.746Z,49.60
2017-11-17T19:43:33.601Z,45.70
2017-11-17T19:46:02.200Z,47.85
2017-11-17T19:48:30.960Z,56.55
2017-11-17T19:50:59.424Z,51.87
2017-11-17T19:53:27.851Z,56.63
2017-11-17T19:55:57.041Z,45.20
2017-11-17T19:58:26.553Z,45.22
2017-11-17T20:00:55.271Z,48.42
2017-11-17T20:03:23.989Z,47.58
2017-11-17T20:05:52.721Z,43.45
2017-11-17T20:08:21.600Z,43.95
2017-11-17T20:10:50.087Z,40.57
2017-11-17T20:13:18.835Z,51.70
2017-11-17T20:15:47.308Z,47.93
2017-11-17T20:18:15.800Z,47.40
2017-11-17T20:20:44.940Z,52.05
2017-11-17T20:23:14.221Z,52.97
2017-11-17T20:25:42.791Z,39.70
2017-11-17T20:28:11.530Z,39.75
2017-11-17T20:30:40.268Z,46.27
2017-11-17T20:33:08.982Z,52.30
2017-11-17T20:38:19.064Z,47.70
2017-11-17T20:40:47.558Z,49.70
2017-11-17T20:43:16.274Z,64.00
2017-11-17T20:45:44.948Z,45.03
2017-11-17T20:48:13.722Z,43.65
2017-11-17T20:50:42.438Z,51.03
2017-11-17T20:53:11.621Z,46.30
2017-11-17T20:55:40.338Z,44.00
2017-11-17T20:58:09.627Z,48.27
2017-11-17T21:00:38.946Z,56.60
2017-11-17T21:03:07.674Z,41.17
2017-11-17T21:05:36.110Z,60.60
2017-11-17T21:08:05.092Z,51.10
2017-11-17T21:10:35.094Z,43.87
2017-11-17T21:13:03.788Z,57.83
2017-11-17T21:15:32.669Z,50.90
2017-11-17T21:18:02.454Z,53.63
2017-11-17T21:20:30.885Z,55.97
2017-11-17T21:23:00.365Z,57.35
2017-11-17T21:25:29.588Z,55.70
2017-11-17T21:27:58.967Z,53.40
2017-11-17T21:30:27.677Z,55.45
2017-11-17T21:32:56.891Z,62.30
2017-11-17T21:35:26.140Z,53.43
2017-11-17T21:37:54.974Z,60.17
2017-11-17T21:40:23.669Z,56.47
2017-11-17T21:42:52.459Z,51.90
2017-11-17T21:45:21.936Z,42.62
2017-11-17T21:47:51.595Z,53.80
2017-11-17T21:50:20.431Z,49.63
2017-11-17T21:52:48.872Z,52.40
2017-11-17T21:55:17.629Z,58.45
2017-11-17T21:57:46.833Z,50.05
2017-11-17T22:00:16.712Z,52.38
2017-11-17T22:02:46.510Z,53.17
2017-11-17T22:05:14.948Z,55.83
2017-11-17T22:07:43.721Z,47.43
2017-11-17T22:10:12.443Z,60.90
2017-11-17T22:12:41.263Z,52.08
2017-11-17T22:15:10.948Z,56.33
2017-11-17T22:17:39.763Z,53.97
2017-11-17T22:20:08.347Z,50.73
2017-11-17T22:22:37.099Z,57.62
2017-11-17T22:25:05.999Z,56.35
2017-11-17T22:27:34.866Z,53.38
2017-11-17T22:30:04.058Z,53.70
2017-11-17T22:32:32.444Z,43.90
2017-11-17T22:35:01.639Z,55.50
2017-11-17T22:37:31.237Z,52.30
2017-11-17T22:39:59.973Z,51.13
2017-11-17T22:42:29.439Z,45.03
2017-11-17T22:44:58.510Z,61.73
2017-11-17T22:47:27.191Z,52.67
2017-11-17T22:49:55.898Z,51.72
2017-11-17T22:52:25.181Z,49.17
2017-11-17T22:54:53.634Z,54.33
2017-11-17T22:57:22.146Z,45.67
2017-11-17T22:59:50.587Z,55.10
2017-11-17T23:02:19.043Z,51.67
2017-11-17T23:04:47.470Z,60.07
2017-11-17T23:07:15.902Z,61.47
2017-11-17T23:09:44.531Z,62.10
2017-11-17T23:12:12.962Z,62.43
2017-11-17T23:14:41.404Z,60.00
2017-11-17T23:17:09.867Z,50.23
2017-11-17T23:19:38.298Z,50.50
2017-11-17T23:22:06.728Z,55.30
2017-11-17T23:24:35.190Z,66.93
2017-11-17T23:27:03.623Z,46.20
2017-11-17T23:29:32.846Z,48.50
2017-11-17T23:32:01.306Z,50.23
2017-11-17T23:34:29.741Z,51.77
2017-11-17T23:36:58.177Z,51.97
2017-11-17T23:39:26.630Z,54.63
2017-11-17T23:41:55.831Z,55.23
2017-11-17T23:44:25.031Z,52.53
2017-11-17T23:46:54.246Z,54.67
2017-11-17T23:49:22.675Z,52.47
2017-11-17T23:51:50.615Z,49.47
2017-11-17T23:54:18.435Z,45.37
2017-11-17T23:56:47.643Z,53.13
2017-11-17T23:59:16.077Z,59.23
